« 2011年秋の北海道~3日目 | トップページ | 2011年秋の北海道~5日目 »

2011年9月24日 (土)

2011年秋の北海道~4日目

RJCM 240000Z 20006KT 9999 FEW015 SCT/// 15/11 Q1018
RJCM 240300Z 18006KT 130V210 9999 FEW025 BKN035 19/10 Q1017
RJCM 240600Z 01007KT 9999 SCT035 19/09 Q1018
RJCM 240900Z 23003KT 190V270 9999 FEW030 BKN060 15/11 Q1020

Dscn8655s
羅臼野営場の朝

Dscn8657s
数組のテントキャンパー

Dscn8659s
熊が濃いです

Dscn8661s
キャンプ場周辺には電柵が設置してありましたが、朝起きるとテントの周辺は新鮮?な鹿のフンが沢山。。。熊除けになるの?

Dscn8670s
パーコレーターでコーヒーを入れますが、何か変ですね

Dscn8672s
釧網本線の浜小清水駅

Dscn8674s
運良く列車が来ました。。。

----------------------------------------------------------------------------

Dscn8676s
が、乗降客は「0」でした!

Dscn8677s
めったに列車は来ません

Dscn8678s
歩道を歩いて行くと

Dscn8679s
オホーツク海と知床半島です

Dscn8680s
良い天気

Dscn8682s
お土産屋では鹿皮が売っています

Dscn8684s
爆走して能取岬に到着。牧場ではサラブレッドが駆けています。

Dscn8685s
オホーツク海

Dscn8686s
能取湖のさんご草

Dscn8687s
今年は土地改良に失敗して群生エリアでさんご草が激減したとか?

Dscn8694s
それでも、赤くてかわいいさんご草が見られました!

Dscn8699s
青い空と赤いさんご草

Dscn8700s

Dscn8709s
サロマ湖の北の河口制限の無い場所でサケ釣りしましたが。。。。

Dscn8710s
ぼうず!


|

« 2011年秋の北海道~3日目 | トップページ | 2011年秋の北海道~5日目 »

別海合宿」カテゴリの記事

コメント

コメントを書く



(ウェブ上には掲載しません)


コメントは記事投稿者が公開するまで表示されません。



« 2011年秋の北海道~3日目 | トップページ | 2011年秋の北海道~5日目 »